• Join FlightAware (Why Join?)
  • Login
  • US Flag 
12:39AM EDT


 

Airport Tracker/Info


-or-


 

Live Flight TrackerFlight Track Log ✈ UPS1219 ✈ 30-May-2013 ✈ KIAD - KSDF

Flight Track Log - Related Links

Times and Time Zones

All times are in EDT time to prevent confusion due to time zone crossing. See the UPS1219 flight status page for this flight to view local times or setup timezone preferences in your user account.

Time Position Orientation Groundspeed Altitude Reporting Facility
EDT Latitude Longitude Course Direction KTS MPH feet Rate Location/Type
10:56PM 38.9420 -77.5070 265° West 168 193 2,200  Level FlightAware
10:56PM 38.9390 -77.5430 264° West 230 265 2,900 2,400 Climbing FlightAware
10:57PM 38.9270 -77.5830 249° West 254 292 4,600 3,600 Climbing FlightAware
10:57PM 38.9120 -77.6170 240° Southwest 268 308 6,200 3,840 Climbing FlightAware
10:58PM 38.8960 -77.6510 239° Southwest 279 321 7,800 3,900 Climbing FlightAware
10:58PM 38.8780 -77.6980 244° Southwest 289 333 9,800 3,600 Climbing FlightAware
10:58PM 38.8740 -77.7230 258° West 307 353 10,500 2,040 Climbing FlightAware
10:59PM 38.8710 -77.8040 267° West 367 422 11,700 2,220 Climbing FlightAware
11:00PM 38.8680 -77.8960 268° West 397 457 13,500 3,060 Climbing FlightAware
11:01PM 38.8650 -78.0030 268° West 407 468 16,100 3,180 Climbing FlightAware
11:01PM 38.8610 -78.1010 267° West 419 482 18,000 2,760 Climbing FlightAware
11:02PM 38.8550 -78.2150 266° West 433 498 20,100 2,700 Climbing FlightAware
11:03PM 38.8520 -78.3190 268° West 444 511 21,900 2,580 Climbing FlightAware
11:03PM 38.8520 -78.4250 270° West 454 522 23,500 2,220 Climbing FlightAware
11:04PM 38.8500 -78.5470 269° West 463 533 25,100 2,100 Climbing FlightAware
11:05PM 38.8410 -78.6710 265° West 469 540 26,700 2,400 Climbing FlightAware
11:05PM 38.8250 -78.7800 259° West 465 535 28,500 2,580 Climbing FlightAware
11:06PM 38.8090 -78.8880 259° West 458 527 30,200 2,280 Climbing FlightAware
11:07PM 38.7930 -78.9940 259° West 457 526 31,600 1,260 Climbing FlightAware
11:08PM 38.7760 -79.1150 260° West 460 529 32,000 240 Climbing FlightAware
11:08PM 38.7600 -79.2190 259° West 458 527 32,000  Level FlightAware
11:09PM 38.7420 -79.3410 259° West 455 524 32,000  Level FlightAware
11:10PM 38.7260 -79.4440 259° West 456 525 32,000  Level FlightAware
11:10PM 38.7090 -79.5580 259° West 456 525 32,000  Level FlightAware
11:11PM 38.6910 -79.6770 259° West 454 522 32,000  Level FlightAware
11:12PM 38.6730 -79.7900 259° West 453 521 32,000  Level FlightAware
11:12PM 38.6580 -79.8870 259° West 453 521 32,000  Level FlightAware
11:13PM 38.6410 -79.9940 259° West 450 518 32,000  Level FlightAware
11:14PM 38.6230 -80.1090 259° West 449 517 32,000  Level FlightAware
11:15PM 38.6070 -80.2050 258° West 449 517 32,000  Level FlightAware
11:15PM 38.5880 -80.3310 259° West 451 519 32,000  Level FlightAware
11:16PM 38.5740 -80.4150 258° West 451 519 32,000  Level FlightAware
11:17PM 38.5420 -80.5540 254° West 470 541 32,000  Level FlightAware
11:17PM 38.5150 -80.6710 254° West 466 536 32,000  Level FlightAware
11:18PM 38.4890 -80.7780 253° West 463 533 32,000  Level FlightAware
11:19PM 38.4620 -80.8930 253° West 463 533 32,000 240 Level FlightAware
11:19PM 38.4380 -80.9950 253° West 462 532 32,400 1,380 Climbing FlightAware
11:20PM 38.4100 -81.1130 253° West 455 524 34,000 1,080 Climbing FlightAware
11:21PM 38.3860 -81.2140 253° West 459 528 34,000  Level FlightAware
11:22PM 38.3590 -81.3250 253° West 455 524 34,000  Level FlightAware
11:22PM 38.3320 -81.4340 253° West 452 520 34,000  Level FlightAware
11:23PM 38.3080 -81.5360 253° West 453 521 34,000  Level FlightAware
11:24PM 38.2766 -81.6632 253° West 453 521 34,000  Level FlightAware ADS-B
11:24PM 38.2578 -81.7397 253° West 455 524 34,000  Level FlightAware ADS-B
11:25PM 38.2290 -81.8570 253° West 455 524 34,000  Level FlightAware ADS-B
11:26PM 38.2049 -81.9539 252° West 455 524 34,000  Level FlightAware ADS-B
11:26PM 38.1850 -82.0329 252° West 455 524 34,000  Level FlightAware ADS-B
11:27PM 38.1653 -82.1115 252° West 453 521 34,000  Level FlightAware ADS-B
11:28PM 38.1219 -82.2857 252° West 451 519 34,000  Level FlightAware ADS-B
11:28PM 38.1012 -82.3690 252° West 451 519 34,000  Level FlightAware ADS-B
11:29PM 38.0690 -82.4940 252° West 461 531 34,000  Level FlightAware
11:30PM 38.0420 -82.6020 252° West 460 529 34,000 -240 Level FlightAware
11:31PM 38.0130 -82.7150 252° West 459 528 33,700 -660 Descending FlightAware
11:31PM 37.9920 -82.7966 252° West 459 528 33,200 -1,140 Descending FlightAware ADS-B
11:32PM 37.9693 -82.8864 252° West 459 528 32,500 -900 Descending FlightAware ADS-B
11:33PM 37.9395 -83.0013 252° West 459 528 32,000 -420 Descending FlightAware ADS-B
11:33PM 37.9186 -83.0829 252° West 459 528 32,000  Level FlightAware ADS-B
11:34PM 37.8860 -83.1980 250° West 458 527 32,000  Level FlightAware
11:35PM 37.8580 -83.3020 251° West 458 527 32,000 -300 Level FlightAware
11:35PM 37.8307 -83.4185 254° West 459 528 31,700 -1,800 Descending FlightAware ADS-B
11:39PM 37.6744 -84.0080 252° West 450 518 24,500 -1,980 Descending FlightAware ADS-B
11:40PM 37.6548 -84.0796 251° West 427 491 23,200 -2,640 Descending FlightAware ADS-B
11:40PM 37.6418 -84.1968 262° West 429 494 21,100 -2,580 Descending FlightAware ADS-B
11:41PM 37.6440 -84.3010 272° West 424 488 19,400 -2,340 Descending FlightAware
11:42PM 37.6460 -84.3960 272° West 411 473 17,900 -1,200 Descending FlightAware
11:42PM 37.6470 -84.4710 271° West 411 473 17,900  Level FlightAware
11:43PM 37.6490 -84.5710 271° West 411 473 17,900  Level FlightAware
11:44PM 37.6490 -84.6410 270° West 411 473 17,900  Level FlightAware
11:45PM 37.6510 -84.7410 271° West 411 473 17,900  Level FlightAware
11:45PM 37.6520 -84.8140 271° West 411 473 17,900 -1,560 Level FlightAware
11:50PM 37.9110 -85.3380 302° West 378 435 9,900 -1,680 Descending FlightAware
11:50PM 37.9360 -85.3700 315° West 378 435 9,900  Level FlightAware
11:51PM 37.9810 -85.4240 317° Northwest 377 434 9,900  Level FlightAware
11:51PM 37.9940 -85.4410 314° West 377 434 9,900  Level FlightAware
11:51PM 38.0300 -85.4840 317° Northwest 342 394 9,900  Level FlightAware
11:52PM 38.0600 -85.5210 316° Northwest 309 356 9,900 -660 Level FlightAware
11:52PM 38.0880 -85.5560 315° West 299 344 9,300 -1,980 Descending FlightAware
11:53PM 38.1210 -85.5840 326° Northwest 308 354 8,100 -2,520 Descending FlightAware
11:53PM 38.1590 -85.5990 343° North 303 349 7,000 -2,220 Descending FlightAware
11:54PM 38.1970 -85.6110 346° North 294 338 6,000 -2,100 Descending FlightAware
11:54PM 38.2300 -85.6210 347° North 293 337 5,100 -1,680 Descending FlightAware
11:55PM 38.2700 -85.6330 347° North 288 331 4,500 -1,200 Descending FlightAware
11:55PM 38.3070 -85.6440 347° North 278 320 4,000 -900 Descending FlightAware
11:57PM 38.3400 -85.7180 300° West 176 203 2,900 -780 Descending FlightAware
11:57PM 38.3340 -85.7270 230° Southwest 159 183 2,800 -600 Descending FlightAware
11:57PM 38.3130 -85.7400 206° Southwest 151 174 2,500 -420 Descending FlightAware
11:58PM 38.2960 -85.7520 209° Southwest 148 170 2,400 -180 Descending FlightAware
11:58PM 38.2890 -85.7550 199° South 148 170 2,400 -480 Level FlightAware
11:58PM 38.2780 -85.7590 196° South 147 169 2,200 -720 Descending FlightAware
11:59PM 38.2590 -85.7560 173° South 130 150 1,900 -660 Descending FlightAware
11:59PM 38.2450 -85.7510 164° South 105 121 1,600 -660 Descending FlightAware
12:00AM 38.2310 -85.7470 167° South 104 120 1,300 -600 Descending FlightAware
12:00AM 38.2200 -85.7430 164° South 108 124 1,100 -600 Descending FlightAware
12:01AM 38.2050 -85.7370 163° South 114 131 800 -660 Descending FlightAware
12:01AM 38.1910 -85.7330 167° South 119 137 500 -720 Descending FlightAware
12:02AM 38.1700 -85.7260 165° South 120 138 -720 Descending FlightAware
12:02AM 38.1710 -85.7270 322° Northwest 34 39  Level FlightAware
12:02AM 38.1720 -85.7280 322° Northwest 16 18  Level FlightAware
12:04AM 38.1770 -85.7360 308° West 27 31  Level FlightAware
12:04AM 38.1780 -85.7410 284° West 28 32  Level FlightAware
12:05AM 38.1790 -85.7430 302° West 15 17  Level FlightAware
12:05AM 38.1770 -85.7420 159° South 16 18  Level FlightAware
12:05AM 38.1770 -85.7390 90° East 18 21  Level FlightAware
12:06AM 38.1760 -85.7390 180° South 12 14  Level FlightAware
12:06AM 38.1760 -85.7380 90° East 19 22  Level FlightAware